Terminal Aerodrome Forecast
Issued by NWS Sterling, VA

Current Version | Previous Version | Text Only | Print | Product List | Glossary On
Versions: 1 2 3 4 5 6 7 8 9 10 11 12 13
000
FTUS41 KLWX 241806 RRA
TAFMRB
TAF
KMRB 241806Z 2418/2518 VRB04KT P6SM FEW250
     FM242300 17010KT P6SM SCT030
     FM250200 VRB04KT P6SM BKN050
     FM251200 28006KT P6SM OVC250=

USA.gov is the U.S. government's official web portal to all federal, state and local government web resources and services.